sensor_id;sensor_type;location;lat;lon;timestamp;P1;durP1;ratioP1;P2;durP2;ratioP2
75427;SDS011;64008;55.612;37.698;2023-05-07T00:01:57;10.82;;;2.70;;
75427;SDS011;64008;55.612;37.698;2023-05-07T00:04:22;9.02;;;2.60;;
75427;SDS011;64008;55.612;37.698;2023-05-07T00:06:48;9.95;;;3.05;;
75427;SDS011;64008;55.612;37.698;2023-05-07T00:09:13;8.65;;;2.65;;
75427;SDS011;64008;55.612;37.698;2023-05-07T00:11:39;6.28;;;2.35;;
75427;SDS011;64008;55.612;37.698;2023-05-07T00:14:04;8.77;;;2.42;;
75427;SDS011;64008;55.612;37.698;2023-05-07T00:16:30;9.10;;;2.30;;
75427;SDS011;64008;55.612;37.698;2023-05-07T00:18:55;9.73;;;2.90;;
75427;SDS011;64008;55.612;37.698;2023-05-07T00:21:21;9.52;;;2.55;;
75427;SDS011;64008;55.612;37.698;2023-05-07T00:23:46;8.02;;;2.20;;
75427;SDS011;64008;55.612;37.698;2023-05-07T00:26:12;7.10;;;2.47;;
75427;SDS011;64008;55.612;37.698;2023-05-07T00:28:37;6.15;;;1.98;;
75427;SDS011;64008;55.612;37.698;2023-05-07T00:31:03;6.95;;;2.28;;
75427;SDS011;64008;55.612;37.698;2023-05-07T00:33:28;8.75;;;2.85;;
75427;SDS011;64008;55.612;37.698;2023-05-07T00:35:54;7.90;;;2.25;;
75427;SDS011;64008;55.612;37.698;2023-05-07T00:38:20;6.72;;;2.30;;
75427;SDS011;64008;55.612;37.698;2023-05-07T00:40:45;7.05;;;2.28;;
75427;SDS011;64008;55.612;37.698;2023-05-07T00:43:11;8.55;;;2.05;;
75427;SDS011;64008;55.612;37.698;2023-05-07T00:45:37;10.70;;;2.17;;
75427;SDS011;64008;55.612;37.698;2023-05-07T00:48:03;7.63;;;2.13;;
75427;SDS011;64008;55.612;37.698;2023-05-07T00:50:30;6.13;;;1.92;;
75427;SDS011;64008;55.612;37.698;2023-05-07T00:52:57;7.00;;;2.42;;
75427;SDS011;64008;55.612;37.698;2023-05-07T00:55:23;6.65;;;2.20;;
75427;SDS011;64008;55.612;37.698;2023-05-07T00:57:49;5.53;;;2.08;;
75427;SDS011;64008;55.612;37.698;2023-05-07T01:00:16;6.63;;;2.30;;
75427;SDS011;64008;55.612;37.698;2023-05-07T01:02:42;6.38;;;2.47;;
75427;SDS011;64008;55.612;37.698;2023-05-07T01:05:09;5.63;;;2.13;;
75427;SDS011;64008;55.612;37.698;2023-05-07T01:07:38;7.13;;;2.00;;
75427;SDS011;64008;55.612;37.698;2023-05-07T01:10:05;7.43;;;2.08;;
75427;SDS011;64008;55.612;37.698;2023-05-07T01:12:32;7.20;;;2.00;;
75427;SDS011;64008;55.612;37.698;2023-05-07T01:17:24;8.38;;;2.28;;
75427;SDS011;64008;55.612;37.698;2023-05-07T01:19:50;5.90;;;2.00;;
75427;SDS011;64008;55.612;37.698;2023-05-07T01:22:16;5.82;;;1.70;;
75427;SDS011;64008;55.612;37.698;2023-05-07T01:25:04;5.72;;;1.90;;
75427;SDS011;64008;55.612;37.698;2023-05-07T01:29:58;10.00;;;2.13;;
75427;SDS011;64008;55.612;37.698;2023-05-07T01:32:27;5.75;;;1.83;;
75427;SDS011;64008;55.612;37.698;2023-05-07T01:34:57;6.05;;;1.70;;
75427;SDS011;64008;55.612;37.698;2023-05-07T01:37:25;4.68;;;1.70;;
75427;SDS011;64008;55.612;37.698;2023-05-07T01:39:51;4.63;;;1.73;;
75427;SDS011;64008;55.612;37.698;2023-05-07T01:42:17;5.85;;;1.80;;
75427;SDS011;64008;55.612;37.698;2023-05-07T01:44:43;5.80;;;1.80;;
75427;SDS011;64008;55.612;37.698;2023-05-07T01:47:09;7.75;;;1.98;;
75427;SDS011;64008;55.612;37.698;2023-05-07T01:49:35;6.10;;;1.80;;
75427;SDS011;64008;55.612;37.698;2023-05-07T01:52:01;5.55;;;1.55;;
75427;SDS011;64008;55.612;37.698;2023-05-07T01:54:27;4.38;;;1.48;;
75427;SDS011;64008;55.612;37.698;2023-05-07T01:56:53;6.63;;;1.80;;
75427;SDS011;64008;55.612;37.698;2023-05-07T01:59:20;5.72;;;1.52;;
75427;SDS011;64008;55.612;37.698;2023-05-07T02:01:45;5.80;;;1.77;;
75427;SDS011;64008;55.612;37.698;2023-05-07T02:04:11;4.63;;;1.88;;
75427;SDS011;64008;55.612;37.698;2023-05-07T02:06:36;4.70;;;1.80;;
75427;SDS011;64008;55.612;37.698;2023-05-07T02:09:02;6.50;;;2.08;;
75427;SDS011;64008;55.612;37.698;2023-05-07T02:11:27;6.32;;;1.58;;
75427;SDS011;64008;55.612;37.698;2023-05-07T02:13:53;5.07;;;1.50;;
75427;SDS011;64008;55.612;37.698;2023-05-07T02:16:18;5.30;;;1.65;;
75427;SDS011;64008;55.612;37.698;2023-05-07T02:18:44;7.80;;;1.70;;
75427;SDS011;64008;55.612;37.698;2023-05-07T02:21:10;4.38;;;1.33;;
75427;SDS011;64008;55.612;37.698;2023-05-07T02:23:36;4.05;;;1.20;;
75427;SDS011;64008;55.612;37.698;2023-05-07T02:26:01;3.85;;;1.27;;
75427;SDS011;64008;55.612;37.698;2023-05-07T02:28:28;4.55;;;1.50;;
75427;SDS011;64008;55.612;37.698;2023-05-07T02:30:54;5.50;;;1.83;;
75427;SDS011;64008;55.612;37.698;2023-05-07T02:33:19;7.80;;;1.77;;
75427;SDS011;64008;55.612;37.698;2023-05-07T02:35:45;5.40;;;1.60;;
75427;SDS011;64008;55.612;37.698;2023-05-07T02:38:10;8.63;;;1.77;;
75427;SDS011;64008;55.612;37.698;2023-05-07T02:40:36;4.97;;;1.30;;
75427;SDS011;64008;55.612;37.698;2023-05-07T02:43:05;5.68;;;1.83;;
75427;SDS011;64008;55.612;37.698;2023-05-07T02:45:31;7.95;;;1.50;;
75427;SDS011;64008;55.612;37.698;2023-05-07T02:47:57;4.25;;;1.40;;
75427;SDS011;64008;55.612;37.698;2023-05-07T02:50:23;4.85;;;1.48;;
75427;SDS011;64008;55.612;37.698;2023-05-07T02:52:49;4.32;;;1.55;;
75427;SDS011;64008;55.612;37.698;2023-05-07T02:55:15;4.00;;;1.50;;
75427;SDS011;64008;55.612;37.698;2023-05-07T02:57:40;4.97;;;1.70;;
75427;SDS011;64008;55.612;37.698;2023-05-07T03:00:16;5.50;;;2.00;;
75427;SDS011;64008;55.612;37.698;2023-05-07T03:02:44;4.75;;;1.83;;
75427;SDS011;64008;55.612;37.698;2023-05-07T03:05:10;8.75;;;1.60;;
75427;SDS011;64008;55.612;37.698;2023-05-07T03:07:36;4.90;;;1.40;;
75427;SDS011;64008;55.612;37.698;2023-05-07T03:10:02;4.20;;;1.30;;
75427;SDS011;64008;55.612;37.698;2023-05-07T03:12:28;4.40;;;1.40;;
75427;SDS011;64008;55.612;37.698;2023-05-07T03:14:53;5.30;;;1.50;;
75427;SDS011;64008;55.612;37.698;2023-05-07T03:17:19;3.97;;;1.13;;
75427;SDS011;64008;55.612;37.698;2023-05-07T03:19:45;5.15;;;1.20;;
75427;SDS011;64008;55.612;37.698;2023-05-07T03:22:11;4.45;;;1.35;;
75427;SDS011;64008;55.612;37.698;2023-05-07T03:24:36;3.83;;;1.15;;
75427;SDS011;64008;55.612;37.698;2023-05-07T03:27:02;3.90;;;1.30;;
75427;SDS011;64008;55.612;37.698;2023-05-07T03:29:28;5.40;;;1.40;;
75427;SDS011;64008;55.612;37.698;2023-05-07T03:31:53;3.80;;;1.30;;
75427;SDS011;64008;55.612;37.698;2023-05-07T03:34:19;7.05;;;1.58;;
75427;SDS011;64008;55.612;37.698;2023-05-07T03:36:48;6.55;;;1.42;;
75427;SDS011;64008;55.612;37.698;2023-05-07T03:39:13;5.78;;;1.55;;
75427;SDS011;64008;55.612;37.698;2023-05-07T03:41:39;5.72;;;1.33;;
75427;SDS011;64008;55.612;37.698;2023-05-07T03:44:05;4.85;;;1.40;;
75427;SDS011;64008;55.612;37.698;2023-05-07T03:46:31;5.63;;;1.50;;
75427;SDS011;64008;55.612;37.698;2023-05-07T03:51:23;4.10;;;1.07;;
75427;SDS011;64008;55.612;37.698;2023-05-07T03:53:48;4.50;;;1.25;;
75427;SDS011;64008;55.612;37.698;2023-05-07T03:56:14;4.13;;;1.38;;
75427;SDS011;64008;55.612;37.698;2023-05-07T03:58:39;3.45;;;1.40;;
75427;SDS011;64008;55.612;37.698;2023-05-07T04:01:05;3.30;;;1.35;;
75427;SDS011;64008;55.612;37.698;2023-05-07T04:03:30;3.30;;;1.10;;
75427;SDS011;64008;55.612;37.698;2023-05-07T04:05:56;4.00;;;1.42;;
75427;SDS011;64008;55.612;37.698;2023-05-07T04:08:21;4.60;;;1.55;;
75427;SDS011;64008;55.612;37.698;2023-05-07T04:10:47;4.45;;;1.30;;
75427;SDS011;64008;55.612;37.698;2023-05-07T04:13:12;4.28;;;1.38;;
75427;SDS011;64008;55.612;37.698;2023-05-07T04:15:38;3.75;;;1.13;;
75427;SDS011;64008;55.612;37.698;2023-05-07T04:18:03;6.65;;;1.42;;
75427;SDS011;64008;55.612;37.698;2023-05-07T04:20:29;4.55;;;1.45;;
75427;SDS011;64008;55.612;37.698;2023-05-07T04:22:54;4.18;;;1.45;;
75427;SDS011;64008;55.612;37.698;2023-05-07T04:25:20;3.67;;;1.27;;
75427;SDS011;64008;55.612;37.698;2023-05-07T04:27:46;3.95;;;1.50;;
75427;SDS011;64008;55.612;37.698;2023-05-07T04:30:11;3.72;;;1.25;;
75427;SDS011;64008;55.612;37.698;2023-05-07T04:32:37;3.63;;;1.23;;
75427;SDS011;64008;55.612;37.698;2023-05-07T04:35:04;4.82;;;1.20;;
75427;SDS011;64008;55.612;37.698;2023-05-07T04:37:31;4.13;;;1.20;;
75427;SDS011;64008;55.612;37.698;2023-05-07T04:39:57;3.00;;;1.10;;
75427;SDS011;64008;55.612;37.698;2023-05-07T04:42:22;3.22;;;1.13;;
75427;SDS011;64008;55.612;37.698;2023-05-07T04:44:52;4.70;;;1.42;;
75427;SDS011;64008;55.612;37.698;2023-05-07T04:47:18;3.67;;;1.20;;
75427;SDS011;64008;55.612;37.698;2023-05-07T04:49:43;3.58;;;1.27;;
75427;SDS011;64008;55.612;37.698;2023-05-07T04:52:09;4.53;;;1.20;;
75427;SDS011;64008;55.612;37.698;2023-05-07T04:54:34;2.75;;;1.08;;
75427;SDS011;64008;55.612;37.698;2023-05-07T04:57:00;3.95;;;1.58;;
75427;SDS011;64008;55.612;37.698;2023-05-07T04:59:25;2.83;;;0.90;;
75427;SDS011;64008;55.612;37.698;2023-05-07T05:01:51;3.83;;;1.30;;
75427;SDS011;64008;55.612;37.698;2023-05-07T05:04:16;3.47;;;1.17;;
75427;SDS011;64008;55.612;37.698;2023-05-07T05:06:42;4.72;;;1.13;;
75427;SDS011;64008;55.612;37.698;2023-05-07T05:09:07;5.28;;;1.17;;
75427;SDS011;64008;55.612;37.698;2023-05-07T05:11:33;4.82;;;1.15;;
75427;SDS011;64008;55.612;37.698;2023-05-07T05:13:59;4.55;;;1.10;;
75427;SDS011;64008;55.612;37.698;2023-05-07T05:16:25;4.20;;;1.10;;
75427;SDS011;64008;55.612;37.698;2023-05-07T05:18:51;2.90;;;1.00;;
75427;SDS011;64008;55.612;37.698;2023-05-07T05:21:17;3.53;;;1.42;;
75427;SDS011;64008;55.612;37.698;2023-05-07T05:23:43;2.83;;;0.85;;
75427;SDS011;64008;55.612;37.698;2023-05-07T05:26:08;2.35;;;0.90;;
75427;SDS011;64008;55.612;37.698;2023-05-07T05:28:34;4.35;;;1.30;;
75427;SDS011;64008;55.612;37.698;2023-05-07T05:30:59;3.25;;;0.95;;
75427;SDS011;64008;55.612;37.698;2023-05-07T05:33:25;4.20;;;1.10;;
75427;SDS011;64008;55.612;37.698;2023-05-07T05:35:50;2.92;;;1.00;;
75427;SDS011;64008;55.612;37.698;2023-05-07T05:38:16;2.95;;;1.10;;
75427;SDS011;64008;55.612;37.698;2023-05-07T05:40:41;5.70;;;1.10;;
75427;SDS011;64008;55.612;37.698;2023-05-07T05:43:07;6.55;;;1.20;;
75427;SDS011;64008;55.612;37.698;2023-05-07T05:45:32;5.88;;;1.10;;
75427;SDS011;64008;55.612;37.698;2023-05-07T05:47:58;5.35;;;1.27;;
75427;SDS011;64008;55.612;37.698;2023-05-07T05:50:24;10.82;;;1.73;;
75427;SDS011;64008;55.612;37.698;2023-05-07T05:52:50;5.25;;;1.05;;
75427;SDS011;64008;55.612;37.698;2023-05-07T05:55:15;4.57;;;0.90;;
75427;SDS011;64008;55.612;37.698;2023-05-07T05:57:41;2.65;;;0.82;;
75427;SDS011;64008;55.612;37.698;2023-05-07T06:00:07;5.82;;;1.30;;
75427;SDS011;64008;55.612;37.698;2023-05-07T06:02:34;3.88;;;1.27;;
75427;SDS011;64008;55.612;37.698;2023-05-07T06:04:59;5.07;;;1.10;;
75427;SDS011;64008;55.612;37.698;2023-05-07T06:07:25;5.35;;;1.10;;
75427;SDS011;64008;55.612;37.698;2023-05-07T06:09:50;6.25;;;1.10;;
75427;SDS011;64008;55.612;37.698;2023-05-07T06:12:16;3.45;;;0.95;;
75427;SDS011;64008;55.612;37.698;2023-05-07T06:14:44;4.18;;;1.05;;
75427;SDS011;64008;55.612;37.698;2023-05-07T06:17:10;8.57;;;1.83;;
75427;SDS011;64008;55.612;37.698;2023-05-07T06:19:35;8.10;;;2.08;;
75427;SDS011;64008;55.612;37.698;2023-05-07T06:22:01;11.30;;;2.65;;
75427;SDS011;64008;55.612;37.698;2023-05-07T06:24:27;11.30;;;3.08;;
75427;SDS011;64008;55.612;37.698;2023-05-07T06:26:53;11.55;;;3.80;;
75427;SDS011;64008;55.612;37.698;2023-05-07T06:29:19;19.60;;;4.03;;
75427;SDS011;64008;55.612;37.698;2023-05-07T06:31:45;8.70;;;3.53;;
75427;SDS011;64008;55.612;37.698;2023-05-07T06:34:10;13.02;;;3.20;;
75427;SDS011;64008;55.612;37.698;2023-05-07T06:36:39;12.70;;;4.20;;
75427;SDS011;64008;55.612;37.698;2023-05-07T06:39:07;12.95;;;4.22;;
75427;SDS011;64008;55.612;37.698;2023-05-07T06:41:32;19.65;;;4.68;;
75427;SDS011;64008;55.612;37.698;2023-05-07T06:43:59;17.70;;;5.32;;
75427;SDS011;64008;55.612;37.698;2023-05-07T06:46:24;22.88;;;5.95;;
75427;SDS011;64008;55.612;37.698;2023-05-07T06:48:50;15.15;;;5.50;;
75427;SDS011;64008;55.612;37.698;2023-05-07T06:51:17;20.83;;;6.90;;
75427;SDS011;64008;55.612;37.698;2023-05-07T06:53:42;19.75;;;6.35;;
75427;SDS011;64008;55.612;37.698;2023-05-07T06:56:08;19.52;;;5.90;;
75427;SDS011;64008;55.612;37.698;2023-05-07T06:58:33;19.05;;;6.45;;
75427;SDS011;64008;55.612;37.698;2023-05-07T07:00:59;22.98;;;6.75;;
75427;SDS011;64008;55.612;37.698;2023-05-07T07:03:25;18.02;;;6.05;;
75427;SDS011;64008;55.612;37.698;2023-05-07T07:05:53;20.40;;;6.00;;
75427;SDS011;64008;55.612;37.698;2023-05-07T07:08:19;17.80;;;5.60;;
75427;SDS011;64008;55.612;37.698;2023-05-07T07:13:12;19.80;;;5.40;;
75427;SDS011;64008;55.612;37.698;2023-05-07T07:15:37;19.08;;;5.00;;
75427;SDS011;64008;55.612;37.698;2023-05-07T07:18:03;13.55;;;5.00;;
75427;SDS011;64008;55.612;37.698;2023-05-07T07:20:28;17.88;;;5.45;;
75427;SDS011;64008;55.612;37.698;2023-05-07T07:22:54;19.42;;;5.70;;
75427;SDS011;64008;55.612;37.698;2023-05-07T07:25:19;18.95;;;5.20;;
75427;SDS011;64008;55.612;37.698;2023-05-07T07:27:45;21.17;;;5.43;;
75427;SDS011;64008;55.612;37.698;2023-05-07T07:30:10;19.75;;;4.60;;
75427;SDS011;64008;55.612;37.698;2023-05-07T07:32:36;16.35;;;4.43;;
75427;SDS011;64008;55.612;37.698;2023-05-07T07:35:02;14.32;;;4.10;;
75427;SDS011;64008;55.612;37.698;2023-05-07T07:37:28;14.73;;;4.78;;
75427;SDS011;64008;55.612;37.698;2023-05-07T07:39:54;17.58;;;4.68;;
75427;SDS011;64008;55.612;37.698;2023-05-07T07:42:20;14.95;;;4.30;;
75427;SDS011;64008;55.612;37.698;2023-05-07T07:44:45;14.05;;;4.38;;
75427;SDS011;64008;55.612;37.698;2023-05-07T07:47:11;13.95;;;4.40;;
75427;SDS011;64008;55.612;37.698;2023-05-07T07:49:36;16.08;;;4.13;;
75427;SDS011;64008;55.612;37.698;2023-05-07T07:52:02;10.50;;;3.55;;
75427;SDS011;64008;55.612;37.698;2023-05-07T07:54:28;17.55;;;4.28;;
75427;SDS011;64008;55.612;37.698;2023-05-07T07:56:54;16.33;;;4.00;;
75427;SDS011;64008;55.612;37.698;2023-05-07T07:59:19;12.05;;;3.78;;
75427;SDS011;64008;55.612;37.698;2023-05-07T08:01:45;12.82;;;3.50;;
75427;SDS011;64008;55.612;37.698;2023-05-07T08:04:13;12.65;;;3.72;;
75427;SDS011;64008;55.612;37.698;2023-05-07T08:06:38;14.50;;;3.40;;
75427;SDS011;64008;55.612;37.698;2023-05-07T08:09:04;15.00;;;4.05;;
75427;SDS011;64008;55.612;37.698;2023-05-07T08:11:29;22.63;;;4.68;;
75427;SDS011;64008;55.612;37.698;2023-05-07T08:13:55;18.15;;;4.38;;
75427;SDS011;64008;55.612;37.698;2023-05-07T08:16:21;17.45;;;4.47;;
75427;SDS011;64008;55.612;37.698;2023-05-07T08:18:47;15.52;;;4.90;;
75427;SDS011;64008;55.612;37.698;2023-05-07T08:21:12;23.80;;;5.70;;
75427;SDS011;64008;55.612;37.698;2023-05-07T08:23:38;40.55;;;11.98;;
75427;SDS011;64008;55.612;37.698;2023-05-07T08:26:03;43.40;;;12.35;;
75427;SDS011;64008;55.612;37.698;2023-05-07T08:28:29;53.45;;;15.13;;
75427;SDS011;64008;55.612;37.698;2023-05-07T08:30:54;50.80;;;12.98;;
75427;SDS011;64008;55.612;37.698;2023-05-07T08:33:21;41.22;;;11.85;;
75427;SDS011;64008;55.612;37.698;2023-05-07T08:35:47;99.18;;;26.63;;
75427;SDS011;64008;55.612;37.698;2023-05-07T08:38:12;126.45;;;34.85;;
75427;SDS011;64008;55.612;37.698;2023-05-07T08:40:38;105.78;;;31.42;;
75427;SDS011;64008;55.612;37.698;2023-05-07T08:43:06;93.35;;;27.95;;
75427;SDS011;64008;55.612;37.698;2023-05-07T08:45:35;85.50;;;25.45;;
75427;SDS011;64008;55.612;37.698;2023-05-07T08:48:05;94.68;;;23.75;;
75427;SDS011;64008;55.612;37.698;2023-05-07T08:50:35;77.10;;;21.48;;
75427;SDS011;64008;55.612;37.698;2023-05-07T08:55:30;98.72;;;22.27;;
75427;SDS011;64008;55.612;37.698;2023-05-07T08:57:56;96.72;;;20.90;;
75427;SDS011;64008;55.612;37.698;2023-05-07T09:00:22;91.45;;;21.00;;
75427;SDS011;64008;55.612;37.698;2023-05-07T09:02:47;87.35;;;19.30;;
75427;SDS011;64008;55.612;37.698;2023-05-07T09:05:13;93.68;;;19.85;;
75427;SDS011;64008;55.612;37.698;2023-05-07T09:07:39;84.97;;;24.52;;
75427;SDS011;64008;55.612;37.698;2023-05-07T09:10:05;412.17;;;154.48;;
75427;SDS011;64008;55.612;37.698;2023-05-07T09:12:31;371.65;;;142.48;;
75427;SDS011;64008;55.612;37.698;2023-05-07T09:14:57;286.10;;;98.43;;
75427;SDS011;64008;55.612;37.698;2023-05-07T09:17:24;204.68;;;67.50;;
75427;SDS011;64008;55.612;37.698;2023-05-07T09:19:49;159.35;;;52.05;;
75427;SDS011;64008;55.612;37.698;2023-05-07T09:22:15;143.80;;;48.22;;
75427;SDS011;64008;55.612;37.698;2023-05-07T09:24:41;125.57;;;42.88;;
75427;SDS011;64008;55.612;37.698;2023-05-07T09:27:13;116.03;;;38.28;;
75427;SDS011;64008;55.612;37.698;2023-05-07T09:29:38;103.38;;;35.67;;
75427;SDS011;64008;55.612;37.698;2023-05-07T09:32:07;92.45;;;32.08;;
75427;SDS011;64008;55.612;37.698;2023-05-07T09:34:34;80.28;;;29.05;;
75427;SDS011;64008;55.612;37.698;2023-05-07T09:37:03;76.95;;;29.65;;
75427;SDS011;64008;55.612;37.698;2023-05-07T09:39:42;74.80;;;26.25;;
75427;SDS011;64008;55.612;37.698;2023-05-07T09:42:09;50.80;;;19.83;;
75427;SDS011;64008;55.612;37.698;2023-05-07T09:44:36;57.78;;;20.27;;
75427;SDS011;64008;55.612;37.698;2023-05-07T09:49:33;42.95;;;14.93;;
75427;SDS011;64008;55.612;37.698;2023-05-07T09:52:00;38.50;;;13.30;;
75427;SDS011;64008;55.612;37.698;2023-05-07T09:54:27;38.20;;;12.93;;
75427;SDS011;64008;55.612;37.698;2023-05-07T09:56:56;32.40;;;12.25;;
75427;SDS011;64008;55.612;37.698;2023-05-07T09:59:23;33.28;;;11.30;;
75427;SDS011;64008;55.612;37.698;2023-05-07T10:01:50;31.75;;;11.63;;
75427;SDS011;64008;55.612;37.698;2023-05-07T10:04:17;29.92;;;10.45;;
75427;SDS011;64008;55.612;37.698;2023-05-07T10:06:44;49.95;;;15.52;;
75427;SDS011;64008;55.612;37.698;2023-05-07T10:09:11;50.10;;;16.38;;
75427;SDS011;64008;55.612;37.698;2023-05-07T10:11:38;48.90;;;17.30;;
75427;SDS011;64008;55.612;37.698;2023-05-07T10:14:05;56.60;;;18.70;;
75427;SDS011;64008;55.612;37.698;2023-05-07T10:16:31;52.38;;;18.48;;
75427;SDS011;64008;55.612;37.698;2023-05-07T10:19:02;55.20;;;18.35;;
75427;SDS011;64008;55.612;37.698;2023-05-07T10:21:31;57.85;;;19.17;;
75427;SDS011;64008;55.612;37.698;2023-05-07T10:24:04;44.70;;;17.80;;
75427;SDS011;64008;55.612;37.698;2023-05-07T10:26:39;48.58;;;17.35;;
75427;SDS011;64008;55.612;37.698;2023-05-07T10:29:12;50.47;;;16.88;;
75427;SDS011;64008;55.612;37.698;2023-05-07T10:31:51;51.58;;;18.13;;
75427;SDS011;64008;55.612;37.698;2023-05-07T10:34:20;50.63;;;17.35;;
75427;SDS011;64008;55.612;37.698;2023-05-07T10:36:50;53.30;;;18.75;;
75427;SDS011;64008;55.612;37.698;2023-05-07T10:39:17;55.28;;;18.23;;
75427;SDS011;64008;55.612;37.698;2023-05-07T10:41:42;50.85;;;18.05;;
75427;SDS011;64008;55.612;37.698;2023-05-07T10:44:08;45.60;;;16.52;;
75427;SDS011;64008;55.612;37.698;2023-05-07T10:46:33;46.03;;;16.85;;
75427;SDS011;64008;55.612;37.698;2023-05-07T10:51:26;56.45;;;17.88;;
75427;SDS011;64008;55.612;37.698;2023-05-07T10:56:35;47.88;;;16.35;;
75427;SDS011;64008;55.612;37.698;2023-05-07T11:01:55;60.42;;;19.88;;
75427;SDS011;64008;55.612;37.698;2023-05-07T11:04:22;50.67;;;17.90;;
75427;SDS011;64008;55.612;37.698;2023-05-07T11:12:45;39.88;;;15.13;;
75427;SDS011;64008;55.612;37.698;2023-05-07T11:15:04;42.08;;;15.13;;
75427;SDS011;64008;55.612;37.698;2023-05-07T11:20:27;39.22;;;15.55;;
75427;SDS011;64008;55.612;37.698;2023-05-07T11:23:08;45.22;;;15.45;;
75427;SDS011;64008;55.612;37.698;2023-05-07T11:25:33;39.55;;;15.00;;
75427;SDS011;64008;55.612;37.698;2023-05-07T11:28:06;36.97;;;14.02;;
75427;SDS011;64008;55.612;37.698;2023-05-07T11:30:32;36.30;;;13.38;;
75427;SDS011;64008;55.612;37.698;2023-05-07T11:32:57;32.45;;;13.20;;
75427;SDS011;64008;55.612;37.698;2023-05-07T11:35:23;34.63;;;13.13;;
75427;SDS011;64008;55.612;37.698;2023-05-07T11:37:49;37.30;;;12.98;;
75427;SDS011;64008;55.612;37.698;2023-05-07T11:40:22;34.20;;;11.23;;
75427;SDS011;64008;55.612;37.698;2023-05-07T11:42:48;40.17;;;12.55;;
75427;SDS011;64008;55.612;37.698;2023-05-07T11:45:22;38.75;;;12.45;;
75427;SDS011;64008;55.612;37.698;2023-05-07T11:47:50;38.92;;;12.05;;
75427;SDS011;64008;55.612;37.698;2023-05-07T11:50:15;39.13;;;12.38;;
75427;SDS011;64008;55.612;37.698;2023-05-07T11:52:49;38.60;;;11.70;;
75427;SDS011;64008;55.612;37.698;2023-05-07T11:55:17;34.85;;;11.30;;
75427;SDS011;64008;55.612;37.698;2023-05-07T11:57:43;35.72;;;10.05;;
75427;SDS011;64008;55.612;37.698;2023-05-07T12:00:10;37.80;;;10.80;;
75427;SDS011;64008;55.612;37.698;2023-05-07T12:02:35;26.75;;;9.27;;
75427;SDS011;64008;55.612;37.698;2023-05-07T12:05:01;22.92;;;7.68;;
75427;SDS011;64008;55.612;37.698;2023-05-07T12:09:53;23.70;;;8.43;;
75427;SDS011;64008;55.612;37.698;2023-05-07T12:12:18;25.13;;;9.23;;
75427;SDS011;64008;55.612;37.698;2023-05-07T12:14:45;23.70;;;8.20;;
75427;SDS011;64008;55.612;37.698;2023-05-07T12:17:11;23.33;;;8.63;;
75427;SDS011;64008;55.612;37.698;2023-05-07T12:19:39;23.23;;;7.75;;
75427;SDS011;64008;55.612;37.698;2023-05-07T12:22:07;26.08;;;9.13;;
75427;SDS011;64008;55.612;37.698;2023-05-07T12:24:46;23.02;;;8.77;;
75427;SDS011;64008;55.612;37.698;2023-05-07T12:29:38;23.60;;;8.35;;
75427;SDS011;64008;55.612;37.698;2023-05-07T12:32:12;23.92;;;8.98;;
75427;SDS011;64008;55.612;37.698;2023-05-07T12:34:39;21.65;;;8.05;;
75427;SDS011;64008;55.612;37.698;2023-05-07T12:37:04;19.30;;;7.50;;
75427;SDS011;64008;55.612;37.698;2023-05-07T12:39:30;24.35;;;7.72;;
75427;SDS011;64008;55.612;37.698;2023-05-07T12:41:56;22.38;;;7.72;;
75427;SDS011;64008;55.612;37.698;2023-05-07T12:44:24;21.50;;;7.72;;
75427;SDS011;64008;55.612;37.698;2023-05-07T12:46:49;19.58;;;7.00;;
75427;SDS011;64008;55.612;37.698;2023-05-07T12:49:15;20.40;;;7.57;;
75427;SDS011;64008;55.612;37.698;2023-05-07T12:51:43;24.30;;;7.32;;
75427;SDS011;64008;55.612;37.698;2023-05-07T12:54:08;20.75;;;7.50;;
75427;SDS011;64008;55.612;37.698;2023-05-07T12:56:37;22.13;;;7.78;;
75427;SDS011;64008;55.612;37.698;2023-05-07T12:59:03;20.20;;;7.20;;
75427;SDS011;64008;55.612;37.698;2023-05-07T13:01:29;22.90;;;7.15;;
75427;SDS011;64008;55.612;37.698;2023-05-07T13:04:02;19.35;;;6.80;;
75427;SDS011;64008;55.612;37.698;2023-05-07T13:06:29;19.55;;;6.78;;
75427;SDS011;64008;55.612;37.698;2023-05-07T13:08:56;17.77;;;6.90;;
75427;SDS011;64008;55.612;37.698;2023-05-07T13:11:21;20.48;;;7.30;;
75427;SDS011;64008;55.612;37.698;2023-05-07T13:13:47;17.35;;;6.32;;
75427;SDS011;64008;55.612;37.698;2023-05-07T13:16:13;17.75;;;7.07;;
75427;SDS011;64008;55.612;37.698;2023-05-07T13:18:39;17.40;;;6.30;;
75427;SDS011;64008;55.612;37.698;2023-05-07T13:23:30;15.30;;;5.70;;
75427;SDS011;64008;55.612;37.698;2023-05-07T13:25:56;15.23;;;5.82;;
75427;SDS011;64008;55.612;37.698;2023-05-07T13:28:22;15.35;;;5.28;;
75427;SDS011;64008;55.612;37.698;2023-05-07T13:30:47;15.73;;;5.60;;
75427;SDS011;64008;55.612;37.698;2023-05-07T13:33:13;13.40;;;4.82;;
75427;SDS011;64008;55.612;37.698;2023-05-07T13:35:40;16.35;;;5.57;;
75427;SDS011;64008;55.612;37.698;2023-05-07T13:38:06;16.58;;;5.70;;
75427;SDS011;64008;55.612;37.698;2023-05-07T13:40:31;14.13;;;5.53;;
75427;SDS011;64008;55.612;37.698;2023-05-07T13:42:57;14.40;;;4.93;;
75427;SDS011;64008;55.612;37.698;2023-05-07T13:45:27;14.07;;;5.18;;
75427;SDS011;64008;55.612;37.698;2023-05-07T13:47:54;15.25;;;5.20;;
75427;SDS011;64008;55.612;37.698;2023-05-07T13:50:20;14.57;;;5.03;;
75427;SDS011;64008;55.612;37.698;2023-05-07T13:52:46;10.50;;;4.30;;
75427;SDS011;64008;55.612;37.698;2023-05-07T13:55:18;12.63;;;4.60;;
75427;SDS011;64008;55.612;37.698;2023-05-07T14:00:19;13.90;;;4.53;;
75427;SDS011;64008;55.612;37.698;2023-05-07T14:02:45;14.68;;;4.65;;
75427;SDS011;64008;55.612;37.698;2023-05-07T14:05:10;12.38;;;4.88;;
75427;SDS011;64008;55.612;37.698;2023-05-07T14:07:36;12.45;;;4.53;;
75427;SDS011;64008;55.612;37.698;2023-05-07T14:10:02;13.07;;;5.07;;
75427;SDS011;64008;55.612;37.698;2023-05-07T14:12:28;12.52;;;4.90;;
75427;SDS011;64008;55.612;37.698;2023-05-07T14:14:53;13.25;;;4.85;;
75427;SDS011;64008;55.612;37.698;2023-05-07T14:17:19;11.45;;;4.20;;
75427;SDS011;64008;55.612;37.698;2023-05-07T14:19:45;9.93;;;3.70;;
75427;SDS011;64008;55.612;37.698;2023-05-07T14:22:10;11.13;;;3.83;;
75427;SDS011;64008;55.612;37.698;2023-05-07T14:24:38;12.77;;;3.78;;
75427;SDS011;64008;55.612;37.698;2023-05-07T14:27:04;10.63;;;3.63;;
75427;SDS011;64008;55.612;37.698;2023-05-07T14:29:30;10.88;;;3.88;;
75427;SDS011;64008;55.612;37.698;2023-05-07T14:31:56;13.55;;;3.85;;
75427;SDS011;64008;55.612;37.698;2023-05-07T14:34:21;8.93;;;3.63;;
75427;SDS011;64008;55.612;37.698;2023-05-07T14:36:47;11.68;;;4.22;;
75427;SDS011;64008;55.612;37.698;2023-05-07T14:39:13;12.65;;;4.57;;
75427;SDS011;64008;55.612;37.698;2023-05-07T14:41:38;9.77;;;3.72;;
75427;SDS011;64008;55.612;37.698;2023-05-07T14:44:04;9.85;;;3.70;;
75427;SDS011;64008;55.612;37.698;2023-05-07T14:46:29;11.55;;;4.13;;
75427;SDS011;64008;55.612;37.698;2023-05-07T14:48:56;9.18;;;3.20;;
75427;SDS011;64008;55.612;37.698;2023-05-07T14:51:22;9.27;;;3.88;;
75427;SDS011;64008;55.612;37.698;2023-05-07T14:53:49;10.98;;;4.22;;
75427;SDS011;64008;55.612;37.698;2023-05-07T14:56:15;9.80;;;3.95;;
75427;SDS011;64008;55.612;37.698;2023-05-07T14:58:41;9.40;;;3.60;;
75427;SDS011;64008;55.612;37.698;2023-05-07T15:01:07;10.30;;;3.80;;